메인 페이지
METAR-TAF:

METAR-TAF

공항 :

타이완 타오위안 국제공항

타이베이, 타이완

위도: 25-05N, 경도: 121-13E, 고도: 33m

현재 날씨관측

예보는 43분 전, 15:00시(UTC)에 발표되었습니다.
남남서7kt남남동풍과 남서풍을 오가는
온도 26°C
습도 94%
기압 1005 hPa
시정 10km 이상
고도 1500ft 상공 구름 조금
고도 4000ft 상공 구름 많음

METAR: RCTP 191500Z 20007KT 160V220 9999 FEW015 BKN040 26/25 Q1005 NOSIG RMK A2970

시각: 23:43 (15:43 UTC)

예보

예보는 4 시간 43분 전, 11:00시(UTC)에 발표되었습니다.
예보 대상 시간: 19일 12시부터 20일 18시까지 (UTC)
5kt
시정 10km 이상
고도 2000ft 상공 구름 조금
고도 3200ft 상공 구름 많음
일시적
19일 12시부터 19일 16시까지 (UTC)
시정: 5000m
고도 1200ft 상공 구름 조금
고도 2500ft 상공 구름 많음
고도 4000ft 상공 구름 많음
소나기
전환 중
20일 00시부터 20일 02시까지 (UTC)
서북서5kt
일시적
20일 06시부터 20일 09시까지 (UTC)
시정: 4000m
고도 1000ft 상공 구름 조금
고도 1500ft 상공 구름 조금, 적란운.
고도 1800ft 상공 구름 많음
고도 3200ft 상공 구름 많음
뇌우, 비
전환 중
20일 10시부터 20일 12시까지 (UTC)
남남서5kt

TAF: RCTP 191100Z 1912/2018 19005KT 9999 FEW020 BKN032 TEMPO 1912/1916 5000 SHRA FEW012 BKN025 BKN040 BECMG 2000/2002 30005KT TEMPO 2006/2009 4000 TSRA FEW010 FEW015CB BKN018 BKN032 BECMG 2010/2012 20005KT

4,000개 이상의 공항 관측 자료 및 예보 (METAR 및 TAF 보고).

지도상에서 검색 가능한 기상관측소가 노란 점과 빨간 점으로 표시되어 있습니다.

기상관측소 명을 보려면 표시 위로 마우스를 이동하세요.

날씨 관측과 예보를 보려면 클릭하세요.

지도 변경 : 확대하려면 엑스 표시가 있는 녹색 버튼, 축소하려면 빼기 표시가 있는 녹색 버튼, 다음 페이지의 지도를 보려면 녹색 화살표를 클릭하세요.


METAR-TAF: